createdAt,value
2019-02-20T00:01:32.151Z,97.00
2019-02-20T00:04:03.965Z,99.80
2019-02-20T00:06:36.059Z,105.40
2019-02-20T00:09:08.336Z,107.00
2019-02-20T00:11:40.554Z,99.60
2019-02-20T00:14:11.991Z,99.40
2019-02-20T00:16:43.552Z,94.20
2019-02-20T00:19:15.394Z,94.80
2019-02-20T00:21:47.251Z,89.00
2019-02-20T00:24:18.985Z,100.60
2019-02-20T00:26:50.948Z,100.40
2019-02-20T00:29:22.617Z,108.80
2019-02-20T00:31:54.652Z,95.60
2019-02-20T00:34:25.905Z,105.60
2019-02-20T00:36:58.026Z,105.60
2019-02-20T00:39:29.539Z,111.40
2019-02-20T00:42:01.237Z,116.80
2019-02-20T00:45:06.866Z,117.60
2019-02-20T00:47:55.613Z,119.60
2019-02-20T00:50:29.273Z,117.40
2019-02-20T00:53:20.115Z,122.00
2019-02-20T00:55:52.001Z,115.60
2019-02-20T00:58:23.659Z,114.20
2019-02-20T01:00:55.416Z,113.80
2019-02-20T01:03:27.064Z,115.60
2019-02-20T01:05:58.949Z,122.60
2019-02-20T01:08:30.556Z,123.20
2019-02-20T01:11:02.445Z,134.60
2019-02-20T01:13:34.042Z,117.60
2019-02-20T01:16:05.556Z,122.20
2019-02-20T01:18:37.227Z,114.60
2019-02-20T01:21:09.274Z,123.20
2019-02-20T01:23:40.901Z,124.80
2019-02-20T01:26:12.993Z,115.60
2019-02-20T01:28:44.631Z,116.40
2019-02-20T01:31:16.175Z,125.20
2019-02-20T01:33:48.133Z,111.60
2019-02-20T01:36:19.509Z,126.40
2019-02-20T01:38:50.909Z,124.00
2019-02-20T01:41:22.685Z,115.00
2019-02-20T01:43:54.672Z,142.20
2019-02-20T01:46:26.230Z,138.40
2019-02-20T01:48:58.039Z,143.80
2019-02-20T01:51:29.780Z,139.00
2019-02-20T01:54:01.490Z,127.20
2019-02-20T01:56:33.334Z,140.00
2019-02-20T01:59:04.984Z,132.00
2019-02-20T02:01:36.690Z,130.80
2019-02-20T02:04:08.456Z,138.80
2019-02-20T02:06:40.230Z,149.40
2019-02-20T02:09:12.167Z,156.60
2019-02-20T02:11:44.438Z,156.80
2019-02-20T02:14:15.853Z,159.60
2019-02-20T02:16:47.702Z,143.20
2019-02-20T02:19:19.493Z,149.60
2019-02-20T02:21:51.234Z,150.20
2019-02-20T02:24:22.955Z,133.00
2019-02-20T02:26:55.695Z,136.40
2019-02-20T02:29:27.891Z,142.80
2019-02-20T02:31:59.739Z,135.60
2019-02-20T02:34:31.441Z,142.00
2019-02-20T02:37:02.873Z,137.20
2019-02-20T02:39:34.510Z,140.40
2019-02-20T02:42:06.591Z,140.80
2019-02-20T02:44:38.437Z,139.00
2019-02-20T02:47:09.971Z,137.40
2019-02-20T02:49:41.695Z,140.80
2019-02-20T02:52:13.353Z,142.40
2019-02-20T02:54:45.275Z,157.00
2019-02-20T02:57:16.868Z,154.20
2019-02-20T02:59:48.760Z,166.00
2019-02-20T03:02:20.835Z,160.20
2019-02-20T03:04:53.188Z,152.00
2019-02-20T03:07:24.563Z,150.60
2019-02-20T03:09:56.092Z,157.40
2019-02-20T03:12:27.777Z,162.40
2019-02-20T03:14:59.383Z,151.20
2019-02-20T03:17:30.890Z,158.80
2019-02-20T03:20:02.383Z,168.40
2019-02-20T03:22:34.823Z,157.60
2019-02-20T03:25:06.494Z,163.20
2019-02-20T03:27:38.318Z,163.40
2019-02-20T03:30:10.397Z,175.40
2019-02-20T03:32:41.786Z,188.00
2019-02-20T03:35:13.288Z,170.50
2019-02-20T03:37:44.600Z,188.50
2019-02-20T03:40:16.550Z,179.25
2019-02-20T03:42:48.294Z,182.50
2019-02-20T03:45:20.559Z,192.75
2019-02-20T03:47:51.986Z,176.75
2019-02-20T03:50:23.787Z,176.80
2019-02-20T03:52:55.713Z,169.00
2019-02-20T03:55:27.423Z,170.20
2019-02-20T03:57:58.939Z,168.00
2019-02-20T04:00:30.360Z,182.50
2019-02-20T04:03:01.749Z,185.00
2019-02-20T04:05:33.310Z,171.60
2019-02-20T04:08:05.217Z,155.40
2019-02-20T04:10:36.622Z,193.75
2019-02-20T04:13:08.331Z,170.50
2019-02-20T04:15:40.027Z,186.00
2019-02-20T04:18:11.638Z,201.25
2019-02-20T04:20:43.258Z,209.25
2019-02-20T04:23:14.969Z,188.75
2019-02-20T04:25:46.472Z,197.50
2019-02-20T04:28:18.032Z,170.25
2019-02-20T04:30:49.737Z,174.25
2019-02-20T04:33:21.365Z,163.40
2019-02-20T04:35:53.057Z,177.00
2019-02-20T04:38:24.436Z,170.00
2019-02-20T04:40:56.143Z,173.75
2019-02-20T04:43:27.908Z,176.50
2019-02-20T04:45:59.626Z,193.00
2019-02-20T04:48:31.162Z,165.20
2019-02-20T04:51:03.121Z,186.25
2019-02-20T04:53:34.760Z,191.75
2019-02-20T04:56:06.427Z,161.40
2019-02-20T04:58:38.391Z,171.00
2019-02-20T05:01:09.981Z,172.40
2019-02-20T05:03:41.503Z,163.60
2019-02-20T05:06:13.051Z,159.00
2019-02-20T05:08:44.923Z,152.60
2019-02-20T05:11:16.621Z,172.20
2019-02-20T05:13:48.335Z,163.80
2019-02-20T05:16:20.514Z,162.00
2019-02-20T05:18:52.212Z,171.40
2019-02-20T05:21:23.872Z,163.40
2019-02-20T05:23:55.286Z,157.40
2019-02-20T05:26:27.048Z,168.40
2019-02-20T05:28:58.715Z,152.60
2019-02-20T05:31:30.256Z,152.80
2019-02-20T05:34:01.886Z,137.40
2019-02-20T05:36:33.500Z,154.60
2019-02-20T05:39:06.053Z,139.40
2019-02-20T05:41:38.498Z,143.80
2019-02-20T05:44:09.727Z,152.80
2019-02-20T05:46:41.228Z,153.80
2019-02-20T05:49:12.773Z,139.40
2019-02-20T05:51:44.651Z,146.20
2019-02-20T05:54:16.824Z,148.60
2019-02-20T05:56:48.768Z,156.00
2019-02-20T05:59:20.922Z,161.40
2019-02-20T06:01:53.057Z,155.40
2019-02-20T06:04:25.319Z,172.60
2019-02-20T06:06:57.476Z,152.60
2019-02-20T06:09:30.149Z,168.80
2019-02-20T06:12:02.099Z,155.80
2019-02-20T06:14:34.217Z,113.60
2019-02-20T06:17:06.269Z,159.80
2019-02-20T06:19:37.824Z,153.20
2019-02-20T06:22:10.426Z,176.00
2019-02-20T06:24:44.194Z,156.20
2019-02-20T06:27:15.396Z,152.00
2019-02-20T06:29:47.282Z,165.20
2019-02-20T06:32:19.036Z,157.20
2019-02-20T06:34:50.506Z,147.40
2019-02-20T06:37:22.501Z,148.20
2019-02-20T06:39:54.284Z,162.20
2019-02-20T06:42:26.038Z,130.40
2019-02-20T06:44:57.715Z,142.40
2019-02-20T06:47:29.780Z,137.20
2019-02-20T06:50:01.754Z,126.00
2019-02-20T06:52:34.705Z,145.60
2019-02-20T06:55:06.887Z,139.80
2019-02-20T06:57:39.167Z,145.00
2019-02-20T07:00:12.651Z,135.00
2019-02-20T07:02:44.441Z,133.20
2019-02-20T07:05:49.995Z,134.00
2019-02-20T07:09:04.824Z,133.80
2019-02-20T07:12:09.439Z,131.00
2019-02-20T07:15:18.783Z,139.40
2019-02-20T07:18:29.035Z,129.80
2019-02-20T07:22:00.092Z,128.00
2019-02-20T07:25:03.068Z,137.80
2019-02-20T07:28:32.963Z,126.60
2019-02-20T07:31:05.572Z,131.80
2019-02-20T07:33:37.483Z,121.80
2019-02-20T07:36:09.317Z,117.20
2019-02-20T07:38:45.358Z,119.80
2019-02-20T07:41:17.054Z,113.40
2019-02-20T07:43:49.660Z,111.00
2019-02-20T07:46:24.665Z,107.00
2019-02-20T07:48:56.388Z,110.80
2019-02-20T07:51:28.238Z,95.80
2019-02-20T07:54:00.096Z,95.00
2019-02-20T07:56:31.859Z,84.00
2019-02-20T07:59:03.351Z,93.20
2019-02-20T08:01:35.006Z,85.60
2019-02-20T08:04:06.822Z,89.80
2019-02-20T08:06:38.596Z,85.60
2019-02-20T08:09:10.128Z,79.00
2019-02-20T08:11:42.770Z,69.60
2019-02-20T08:14:14.268Z,84.20
2019-02-20T08:16:52.175Z,88.60
2019-02-20T08:19:21.809Z,87.60
2019-02-20T08:21:53.158Z,88.80
2019-02-20T08:24:24.608Z,90.40
2019-02-20T08:26:56.265Z,90.20
2019-02-20T08:29:31.683Z,83.20
2019-02-20T08:32:03.536Z,94.40
2019-02-20T08:34:36.298Z,87.00
2019-02-20T08:37:08.129Z,92.20
2019-02-20T08:39:39.643Z,93.80
2019-02-20T08:42:11.235Z,77.20
2019-02-20T08:44:42.852Z,84.00
2019-02-20T08:47:14.823Z,97.40
2019-02-20T08:49:46.496Z,89.60
2019-02-20T08:52:18.164Z,84.80
2019-02-20T08:54:50.259Z,87.60
2019-02-20T08:57:21.740Z,73.60
2019-02-20T08:59:53.463Z,82.00
2019-02-20T09:02:26.713Z,71.00
2019-02-20T09:04:58.906Z,79.40
2019-02-20T09:07:31.210Z,77.40
2019-02-20T09:10:03.396Z,78.40
2019-02-20T09:12:36.490Z,78.20
2019-02-20T09:15:08.824Z,81.20
2019-02-20T09:17:40.713Z,80.40
2019-02-20T09:20:12.513Z,73.00
2019-02-20T09:22:47.050Z,69.00
2019-02-20T09:25:20.114Z,79.40
2019-02-20T09:27:52.290Z,67.40
2019-02-20T09:30:28.433Z,72.00
2019-02-20T09:32:56.774Z,67.80
2019-02-20T09:35:28.396Z,78.80
2019-02-20T09:38:00.534Z,72.40
2019-02-20T09:40:31.975Z,74.00
2019-02-20T09:43:03.977Z,75.20
2019-02-20T09:45:41.999Z,64.00
2019-02-20T09:48:10.175Z,74.20
2019-02-20T09:50:41.979Z,69.20
2019-02-20T09:53:13.990Z,67.20
2019-02-20T09:55:51.640Z,61.80
2019-02-20T09:58:19.264Z,62.60
2019-02-20T10:00:51.129Z,63.40
2019-02-20T10:03:22.997Z,64.40
2019-02-20T10:05:54.941Z,70.20
2019-02-20T10:08:26.641Z,75.00
2019-02-20T10:10:58.049Z,75.20
2019-02-20T10:13:30.680Z,75.00
2019-02-20T10:16:03.479Z,76.40
2019-02-20T10:18:36.103Z,72.80
2019-02-20T10:21:07.825Z,75.80
2019-02-20T10:23:39.764Z,72.40
2019-02-20T10:26:11.328Z,65.20
2019-02-20T10:28:42.922Z,74.60
2019-02-20T10:31:14.850Z,73.40
2019-02-20T10:33:46.863Z,65.20
2019-02-20T10:36:19.425Z,70.40
2019-02-20T10:38:51.457Z,69.80
2019-02-20T10:41:26.113Z,69.00
2019-02-20T10:43:58.014Z,66.00
2019-02-20T10:46:29.864Z,61.60
2019-02-20T10:49:01.810Z,60.00
2019-02-20T10:51:32.342Z,59.20
2019-02-20T10:54:04.207Z,58.40
2019-02-20T10:56:36.332Z,58.80
2019-02-20T10:59:08.259Z,60.40
2019-02-20T11:01:40.243Z,61.60
2019-02-20T11:04:12.169Z,63.60
2019-02-20T11:06:44.202Z,63.00
2019-02-20T11:09:16.065Z,63.20
2019-02-20T11:11:48.124Z,62.60
2019-02-20T11:14:20.164Z,73.40
2019-02-20T11:16:52.272Z,64.20
2019-02-20T11:19:24.093Z,60.40
2019-02-20T11:21:56.006Z,65.40
2019-02-20T11:24:27.761Z,62.20
2019-02-20T11:26:59.830Z,71.00
2019-02-20T11:29:31.688Z,58.20
2019-02-20T11:32:03.473Z,64.00
2019-02-20T11:34:35.383Z,64.20
2019-02-20T11:37:07.299Z,63.40
2019-02-20T11:39:39.053Z,63.80
2019-02-20T11:42:10.967Z,61.60
2019-02-20T11:44:43.746Z,63.80
2019-02-20T11:47:15.706Z,62.00
2019-02-20T11:49:47.376Z,64.60
2019-02-20T11:52:19.260Z,61.60
2019-02-20T11:54:51.006Z,63.60
2019-02-20T11:57:22.698Z,68.80
2019-02-20T11:59:54.108Z,64.80
2019-02-20T12:02:26.338Z,68.20
2019-02-20T12:04:57.870Z,70.20
2019-02-20T12:07:30.117Z,65.00
2019-02-20T12:10:02.006Z,63.60
2019-02-20T12:12:33.965Z,56.80
2019-02-20T12:15:06.242Z,61.40
2019-02-20T12:17:38.156Z,61.40
2019-02-20T12:20:09.693Z,59.60
2019-02-20T12:22:41.653Z,50.60
2019-02-20T12:25:15.182Z,62.20
2019-02-20T12:27:46.994Z,61.00
2019-02-20T12:30:18.569Z,64.00
2019-02-20T12:32:50.300Z,59.20
2019-02-20T12:35:22.008Z,63.80
2019-02-20T12:37:53.771Z,67.60
2019-02-20T12:40:25.459Z,70.40
2019-02-20T12:42:57.251Z,62.40
2019-02-20T12:45:29.070Z,75.00
2019-02-20T12:48:00.388Z,65.40
2019-02-20T12:50:31.933Z,75.80
2019-02-20T12:53:03.585Z,76.40
2019-02-20T12:55:35.579Z,68.60
2019-02-20T12:58:07.299Z,74.40
2019-02-20T13:00:39.127Z,76.00
2019-02-20T13:03:11.230Z,76.20
2019-02-20T13:05:43.221Z,73.80
2019-02-20T13:08:14.939Z,85.60
2019-02-20T13:10:46.662Z,67.00
2019-02-20T13:13:18.596Z,80.00
2019-02-20T13:15:50.160Z,78.40
2019-02-20T13:18:22.095Z,79.80
2019-02-20T13:20:53.824Z,64.40
2019-02-20T13:23:25.444Z,71.80
2019-02-20T13:25:57.091Z,81.40
2019-02-20T13:28:28.887Z,77.20
2019-02-20T13:31:00.925Z,82.40
2019-02-20T13:33:32.741Z,79.60
2019-02-20T13:36:04.961Z,97.00
2019-02-20T13:38:36.388Z,87.20
2019-02-20T13:41:07.815Z,87.60
2019-02-20T13:43:40.870Z,74.20
2019-02-20T13:46:12.560Z,95.40
2019-02-20T13:48:44.252Z,85.40
2019-02-20T13:51:17.654Z,75.00
2019-02-20T13:53:49.144Z,87.00
2019-02-20T13:56:20.868Z,79.20
2019-02-20T13:58:52.650Z,81.00
2019-02-20T14:01:24.653Z,74.80
2019-02-20T14:03:56.182Z,80.40
2019-02-20T14:06:27.864Z,80.00
2019-02-20T14:08:59.567Z,78.20
2019-02-20T14:11:31.220Z,79.40
2019-02-20T14:14:02.820Z,78.80
2019-02-20T14:16:34.594Z,85.40
2019-02-20T14:19:06.518Z,67.40
2019-02-20T14:21:38.052Z,71.40
2019-02-20T14:24:09.918Z,84.80
2019-02-20T14:26:41.512Z,74.80
2019-02-20T14:29:13.353Z,76.60
2019-02-20T14:31:45.225Z,77.40
2019-02-20T14:34:16.977Z,85.00
2019-02-20T14:36:48.923Z,76.20
2019-02-20T14:39:20.420Z,70.00
2019-02-20T14:41:52.477Z,64.80
2019-02-20T14:44:23.804Z,74.60
2019-02-20T14:46:56.600Z,77.20
2019-02-20T14:49:28.206Z,72.60
2019-02-20T14:52:00.729Z,67.20
2019-02-20T14:54:32.606Z,70.60
2019-02-20T14:57:04.952Z,68.60
2019-02-20T14:59:37.388Z,80.20
2019-02-20T15:02:09.570Z,81.40
2019-02-20T15:04:50.323Z,71.40
2019-02-20T15:07:23.982Z,77.40
2019-02-20T15:09:56.200Z,76.20
2019-02-20T15:12:27.932Z,79.60
2019-02-20T15:14:59.393Z,77.40
2019-02-20T15:17:31.668Z,85.20
2019-02-20T15:20:03.528Z,78.20
2019-02-20T15:22:35.587Z,81.80
2019-02-20T15:25:07.377Z,83.40
2019-02-20T15:27:39.528Z,80.80
2019-02-20T15:30:12.741Z,79.20
2019-02-20T15:32:44.606Z,81.20
2019-02-20T15:35:16.657Z,94.00
2019-02-20T15:37:48.498Z,98.20
2019-02-20T15:40:20.094Z,92.20
2019-02-20T15:42:51.719Z,92.40
2019-02-20T15:45:23.453Z,95.00
2019-02-20T15:47:55.166Z,83.80
2019-02-20T15:50:27.394Z,82.80
2019-02-20T15:52:58.877Z,89.00
2019-02-20T15:55:30.718Z,76.20
2019-02-20T15:58:02.330Z,77.60
2019-02-20T16:00:34.119Z,67.80
2019-02-20T16:03:05.968Z,76.60
2019-02-20T16:05:37.392Z,78.40
2019-02-20T16:08:09.270Z,82.00
2019-02-20T16:10:41.040Z,75.20
2019-02-20T16:13:12.552Z,73.80
2019-02-20T16:15:45.274Z,56.40
2019-02-20T16:18:16.963Z,75.20
2019-02-20T16:20:49.177Z,79.00
2019-02-20T16:23:20.914Z,83.20
2019-02-20T16:25:52.685Z,82.20
2019-02-20T16:28:31.840Z,86.60
2019-02-20T16:30:57.838Z,83.20
2019-02-20T16:33:29.372Z,76.80
2019-02-20T16:36:00.961Z,79.60
2019-02-20T16:38:32.493Z,84.20
2019-02-20T16:41:04.779Z,71.00
2019-02-20T16:43:36.530Z,82.40
2019-02-20T16:46:10.133Z,80.80
2019-02-20T16:48:43.153Z,72.80
2019-02-20T16:51:14.879Z,88.20
2019-02-20T16:53:50.059Z,74.00
2019-02-20T16:56:21.858Z,84.60
2019-02-20T16:58:53.621Z,70.00
2019-02-20T17:01:25.576Z,78.20
2019-02-20T17:03:57.323Z,82.40
2019-02-20T17:06:29.012Z,83.80
2019-02-20T17:09:00.625Z,79.60
2019-02-20T17:11:33.830Z,74.00
2019-02-20T17:14:05.591Z,78.80
2019-02-20T17:16:37.449Z,82.40
2019-02-20T17:19:09.451Z,79.40
2019-02-20T17:21:41.379Z,86.60
2019-02-20T17:24:13.148Z,81.40
2019-02-20T17:26:45.087Z,90.00
2019-02-20T17:29:16.930Z,89.60
2019-02-20T17:31:49.200Z,88.80
2019-02-20T17:34:20.998Z,89.40
2019-02-20T17:36:53.212Z,89.00
2019-02-20T17:39:24.682Z,90.40
2019-02-20T17:41:57.728Z,87.60
2019-02-20T17:44:29.236Z,97.20
2019-02-20T17:47:00.730Z,100.80
2019-02-20T17:49:32.477Z,82.40
2019-02-20T17:52:04.230Z,93.80
2019-02-20T17:54:36.060Z,86.40
2019-02-20T17:57:07.771Z,87.80
2019-02-20T17:59:39.422Z,93.40
2019-02-20T18:02:11.173Z,94.00
2019-02-20T18:04:43.859Z,94.60
2019-02-20T18:07:17.141Z,88.00
2019-02-20T18:09:49.805Z,96.00
2019-02-20T18:12:21.397Z,97.20
2019-02-20T18:14:52.966Z,94.80
2019-02-20T18:17:24.920Z,89.00
2019-02-20T18:19:56.505Z,69.80
2019-02-20T18:22:27.971Z,70.40
2019-02-20T18:25:00.998Z,72.00
2019-02-20T18:27:33.202Z,73.40
2019-02-20T18:30:04.827Z,72.80
2019-02-20T18:32:38.414Z,71.80
2019-02-20T18:35:10.610Z,77.20
2019-02-20T18:37:42.543Z,70.80
2019-02-20T18:40:15.392Z,78.00
2019-02-20T18:42:47.513Z,76.40
2019-02-20T18:45:19.321Z,75.00
2019-02-20T18:47:50.881Z,73.60
2019-02-20T18:50:22.708Z,71.60
2019-02-20T18:52:54.702Z,75.00
2019-02-20T18:55:26.676Z,82.60
2019-02-20T18:57:59.843Z,83.80
2019-02-20T19:00:32.176Z,93.80
2019-02-20T19:03:04.233Z,92.60
2019-02-20T19:05:35.946Z,97.00
2019-02-20T19:08:51.185Z,86.60
2019-02-20T19:11:38.855Z,71.20
2019-02-20T19:14:21.836Z,72.20
2019-02-20T19:17:16.896Z,78.00
2019-02-20T19:20:23.807Z,67.40
2019-02-20T19:23:37.219Z,76.40
2019-02-20T19:26:35.889Z,69.00
2019-02-20T19:29:27.988Z,67.20
2019-02-20T19:32:34.361Z,67.80
2019-02-20T19:35:24.017Z,68.40
2019-02-20T19:38:16.410Z,66.60
2019-02-20T19:41:22.704Z,75.40
2019-02-20T19:44:16.983Z,71.80
2019-02-20T19:47:41.157Z,67.40
2019-02-20T19:50:57.554Z,68.40
2019-02-20T19:53:42.043Z,68.40
2019-02-20T19:57:02.398Z,74.20
2019-02-20T19:59:53.182Z,72.60
2019-02-20T20:02:55.949Z,68.80
2019-02-20T20:06:03.227Z,66.60
2019-02-20T20:09:12.076Z,69.40
2019-02-20T20:12:26.931Z,69.60
2019-02-20T20:16:43.638Z,73.00
2019-02-20T20:19:43.431Z,70.40
2019-02-20T20:22:57.114Z,65.60
2019-02-20T20:25:48.823Z,67.60
2019-02-20T20:28:35.402Z,65.40
2019-02-20T20:31:38.227Z,67.60
2019-02-20T20:34:58.490Z,65.20
2019-02-20T20:38:09.080Z,69.80
2019-02-20T20:41:12.830Z,66.80
2019-02-20T20:44:09.208Z,69.20
2019-02-20T20:47:15.353Z,68.00
2019-02-20T20:49:59.181Z,74.60
2019-02-20T20:52:44.900Z,71.00
2019-02-20T20:55:48.819Z,68.20
2019-02-20T20:58:40.044Z,69.60
2019-02-20T21:01:39.105Z,65.40
2019-02-20T21:05:06.543Z,75.00
2019-02-20T21:08:10.012Z,73.40
2019-02-20T21:11:13.310Z,69.00
2019-02-20T21:14:36.928Z,65.40
2019-02-20T21:17:44.587Z,67.00
2019-02-20T21:20:54.112Z,64.60
2019-02-20T21:24:20.619Z,74.00
2019-02-20T21:27:41.960Z,73.80
2019-02-20T21:30:48.669Z,72.00
2019-02-20T21:34:09.569Z,74.00
2019-02-20T21:36:49.940Z,85.00
2019-02-20T21:39:51.936Z,81.60
2019-02-20T21:42:44.804Z,75.20
2019-02-20T21:45:29.016Z,73.20
2019-02-20T21:48:40.641Z,79.00
2019-02-20T21:51:33.507Z,67.80
2019-02-20T21:54:52.027Z,80.60
2019-02-20T21:57:41.486Z,83.60
2019-02-20T22:00:36.103Z,80.20
2019-02-20T22:03:49.130Z,76.80
2019-02-20T22:06:58.367Z,78.80
2019-02-20T22:10:02.816Z,72.20
2019-02-20T22:13:13.694Z,83.60
2019-02-20T22:16:04.329Z,80.20
2019-02-20T22:19:05.429Z,78.40
2019-02-20T22:22:17.635Z,78.00
2019-02-20T22:25:16.952Z,76.60
2019-02-20T22:28:26.897Z,74.40
2019-02-20T22:31:06.360Z,72.40
2019-02-20T22:34:06.612Z,79.00
2019-02-20T22:37:13.212Z,81.80
2019-02-20T22:40:14.141Z,71.60
2019-02-20T22:43:30.470Z,76.40
2019-02-20T22:46:31.114Z,80.40
2019-02-20T22:49:30.814Z,72.60
2019-02-20T22:52:10.828Z,83.00
2019-02-20T22:55:28.684Z,80.60
2019-02-20T22:58:50.229Z,77.00
2019-02-20T23:02:02.837Z,74.80
2019-02-20T23:05:16.303Z,82.40
2019-02-20T23:08:02.711Z,78.20
2019-02-20T23:11:02.935Z,81.40
2019-02-20T23:14:13.952Z,77.60
2019-02-20T23:16:45.926Z,81.40
2019-02-20T23:19:17.730Z,74.60
2019-02-20T23:21:49.325Z,76.20
2019-02-20T23:24:21.117Z,84.60
2019-02-20T23:26:52.837Z,87.60
2019-02-20T23:29:24.435Z,85.60
2019-02-20T23:31:55.916Z,83.40
2019-02-20T23:34:27.849Z,83.80
2019-02-20T23:36:59.871Z,81.20
2019-02-20T23:39:31.596Z,79.40
2019-02-20T23:42:03.206Z,84.00
2019-02-20T23:44:35.336Z,80.40
2019-02-20T23:47:06.819Z,86.00
2019-02-20T23:49:38.414Z,91.60
2019-02-20T23:52:10.147Z,84.00
2019-02-20T23:54:41.559Z,88.60
2019-02-20T23:57:13.514Z,89.20
2019-02-20T23:59:45.112Z,97.40
